sensor_id;sensor_type;location;lat;lon;timestamp;P1;durP1;ratioP1;P2;durP2;ratioP2
14141;SDS011;7151;52.246;4.820;2023-08-06T00:00:04;3.43;;;2.70;;
14141;SDS011;7151;52.246;4.820;2023-08-06T00:02:30;3.33;;;2.57;;
14141;SDS011;7151;52.246;4.820;2023-08-06T00:04:56;5.73;;;2.90;;
14141;SDS011;7151;52.246;4.820;2023-08-06T00:07:21;3.33;;;2.63;;
14141;SDS011;7151;52.246;4.820;2023-08-06T00:09:47;3.43;;;2.37;;
14141;SDS011;7151;52.246;4.820;2023-08-06T00:12:12;2.93;;;2.50;;
14141;SDS011;7151;52.246;4.820;2023-08-06T00:14:38;5.67;;;2.77;;
14141;SDS011;7151;52.246;4.820;2023-08-06T00:17:03;3.47;;;2.70;;
14141;SDS011;7151;52.246;4.820;2023-08-06T00:19:30;4.13;;;3.57;;
14141;SDS011;7151;52.246;4.820;2023-08-06T00:21:56;5.20;;;3.47;;
14141;SDS011;7151;52.246;4.820;2023-08-06T00:24:21;5.40;;;3.50;;
14141;SDS011;7151;52.246;4.820;2023-08-06T00:26:47;4.67;;;3.27;;
14141;SDS011;7151;52.246;4.820;2023-08-06T00:29:13;4.47;;;3.07;;
14141;SDS011;7151;52.246;4.820;2023-08-06T00:31:38;3.50;;;3.10;;
14141;SDS011;7151;52.246;4.820;2023-08-06T00:34:04;3.37;;;2.63;;
14141;SDS011;7151;52.246;4.820;2023-08-06T00:36:29;3.93;;;2.93;;
14141;SDS011;7151;52.246;4.820;2023-08-06T00:38:55;4.53;;;3.87;;
14141;SDS011;7151;52.246;4.820;2023-08-06T00:41:20;4.90;;;3.37;;
14141;SDS011;7151;52.246;4.820;2023-08-06T00:43:46;4.43;;;2.97;;
14141;SDS011;7151;52.246;4.820;2023-08-06T00:46:12;6.77;;;3.53;;
14141;SDS011;7151;52.246;4.820;2023-08-06T00:48:39;4.87;;;3.53;;
14141;SDS011;7151;52.246;4.820;2023-08-06T00:51:05;3.80;;;3.30;;
14141;SDS011;7151;52.246;4.820;2023-08-06T00:53:32;4.50;;;3.60;;
14141;SDS011;7151;52.246;4.820;2023-08-06T00:55:58;5.17;;;4.03;;
14141;SDS011;7151;52.246;4.820;2023-08-06T00:58:24;6.40;;;3.67;;
14141;SDS011;7151;52.246;4.820;2023-08-06T01:00:50;4.30;;;3.37;;
14141;SDS011;7151;52.246;4.820;2023-08-06T01:03:15;4.80;;;3.87;;
14141;SDS011;7151;52.246;4.820;2023-08-06T01:05:41;4.57;;;3.93;;
14141;SDS011;7151;52.246;4.820;2023-08-06T01:13:42;4.40;;;3.70;;
14141;SDS011;7151;52.246;4.820;2023-08-06T01:16:13;4.50;;;3.43;;
14141;SDS011;7151;52.246;4.820;2023-08-06T01:18:40;5.00;;;3.80;;
14141;SDS011;7151;52.246;4.820;2023-08-06T01:21:08;6.73;;;3.93;;
14141;SDS011;7151;52.246;4.820;2023-08-06T01:23:34;5.03;;;3.70;;
14141;SDS011;7151;52.246;4.820;2023-08-06T01:29:08;4.63;;;3.87;;
14141;SDS011;7151;52.246;4.820;2023-08-06T01:31:43;4.80;;;3.37;;
14141;SDS011;7151;52.246;4.820;2023-08-06T01:34:17;5.03;;;4.17;;
14141;SDS011;7151;52.246;4.820;2023-08-06T01:36:48;5.20;;;4.03;;
14141;SDS011;7151;52.246;4.820;2023-08-06T01:39:15;4.83;;;3.67;;
14141;SDS011;7151;52.246;4.820;2023-08-06T01:41:40;5.40;;;3.37;;
14141;SDS011;7151;52.246;4.820;2023-08-06T01:44:06;3.80;;;3.20;;
14141;SDS011;7151;52.246;4.820;2023-08-06T01:46:31;6.90;;;3.57;;
14141;SDS011;7151;52.246;4.820;2023-08-06T01:48:57;4.60;;;3.30;;
14141;SDS011;7151;52.246;4.820;2023-08-06T01:51:22;4.00;;;3.47;;
14141;SDS011;7151;52.246;4.820;2023-08-06T01:53:48;3.57;;;2.97;;
14141;SDS011;7151;52.246;4.820;2023-08-06T01:56:13;4.57;;;3.33;;
14141;SDS011;7151;52.246;4.820;2023-08-06T01:58:39;5.20;;;3.87;;
14141;SDS011;7151;52.246;4.820;2023-08-06T02:01:05;7.57;;;4.07;;
14141;SDS011;7151;52.246;4.820;2023-08-06T02:03:30;5.07;;;3.20;;
14141;SDS011;7151;52.246;4.820;2023-08-06T02:05:56;5.07;;;3.90;;
14141;SDS011;7151;52.246;4.820;2023-08-06T02:08:22;5.33;;;4.27;;
14141;SDS011;7151;52.246;4.820;2023-08-06T02:10:47;4.57;;;3.47;;
14141;SDS011;7151;52.246;4.820;2023-08-06T02:13:13;5.17;;;4.20;;
14141;SDS011;7151;52.246;4.820;2023-08-06T02:15:42;5.17;;;3.50;;
14141;SDS011;7151;52.246;4.820;2023-08-06T02:18:08;4.23;;;3.40;;
14141;SDS011;7151;52.246;4.820;2023-08-06T02:20:34;3.67;;;3.03;;
14141;SDS011;7151;52.246;4.820;2023-08-06T02:22:59;3.90;;;3.47;;
14141;SDS011;7151;52.246;4.820;2023-08-06T02:25:25;6.37;;;3.50;;
14141;SDS011;7151;52.246;4.820;2023-08-06T02:27:51;3.37;;;3.03;;
14141;SDS011;7151;52.246;4.820;2023-08-06T02:30:16;4.50;;;3.60;;
14141;SDS011;7151;52.246;4.820;2023-08-06T02:32:42;4.27;;;3.50;;
14141;SDS011;7151;52.246;4.820;2023-08-06T02:35:07;3.93;;;3.53;;
14141;SDS011;7151;52.246;4.820;2023-08-06T02:37:33;5.23;;;3.10;;
14141;SDS011;7151;52.246;4.820;2023-08-06T02:39:59;4.70;;;3.27;;
14141;SDS011;7151;52.246;4.820;2023-08-06T02:42:25;6.07;;;3.33;;
14141;SDS011;7151;52.246;4.820;2023-08-06T02:44:51;5.30;;;3.70;;
14141;SDS011;7151;52.246;4.820;2023-08-06T02:47:19;4.77;;;3.30;;
14141;SDS011;7151;52.246;4.820;2023-08-06T02:49:45;3.93;;;3.33;;
14141;SDS011;7151;52.246;4.820;2023-08-06T02:52:11;4.90;;;3.80;;
14141;SDS011;7151;52.246;4.820;2023-08-06T02:54:37;4.03;;;3.40;;
14141;SDS011;7151;52.246;4.820;2023-08-06T02:57:02;3.90;;;3.50;;
14141;SDS011;7151;52.246;4.820;2023-08-06T02:59:28;4.80;;;3.77;;
14141;SDS011;7151;52.246;4.820;2023-08-06T03:01:53;3.67;;;3.30;;
14141;SDS011;7151;52.246;4.820;2023-08-06T03:04:19;3.60;;;2.93;;
14141;SDS011;7151;52.246;4.820;2023-08-06T03:06:45;4.50;;;2.90;;
14141;SDS011;7151;52.246;4.820;2023-08-06T03:09:10;6.20;;;3.33;;
14141;SDS011;7151;52.246;4.820;2023-08-06T03:11:36;6.57;;;3.40;;
14141;SDS011;7151;52.246;4.820;2023-08-06T03:14:01;4.63;;;3.30;;
14141;SDS011;7151;52.246;4.820;2023-08-06T03:16:27;4.83;;;3.93;;
14141;SDS011;7151;52.246;4.820;2023-08-06T03:18:52;6.47;;;3.23;;
14141;SDS011;7151;52.246;4.820;2023-08-06T03:21:18;7.77;;;3.47;;
14141;SDS011;7151;52.246;4.820;2023-08-06T03:23:46;4.43;;;3.17;;
14141;SDS011;7151;52.246;4.820;2023-08-06T03:26:13;5.80;;;3.93;;
14141;SDS011;7151;52.246;4.820;2023-08-06T03:28:38;5.10;;;3.60;;
14141;SDS011;7151;52.246;4.820;2023-08-06T03:31:04;5.13;;;3.80;;
14141;SDS011;7151;52.246;4.820;2023-08-06T03:33:29;4.53;;;3.30;;
14141;SDS011;7151;52.246;4.820;2023-08-06T03:35:55;3.50;;;2.90;;
14141;SDS011;7151;52.246;4.820;2023-08-06T03:38:21;4.27;;;3.47;;
14141;SDS011;7151;52.246;4.820;2023-08-06T03:40:47;4.70;;;3.40;;
14141;SDS011;7151;52.246;4.820;2023-08-06T03:43:14;3.80;;;3.20;;
14141;SDS011;7151;52.246;4.820;2023-08-06T03:45:42;4.67;;;3.50;;
14141;SDS011;7151;52.246;4.820;2023-08-06T03:48:08;2.90;;;2.60;;
14141;SDS011;7151;52.246;4.820;2023-08-06T03:50:34;3.30;;;1.73;;
14141;SDS011;7151;52.246;4.820;2023-08-06T03:53:00;1.70;;;1.43;;
14141;SDS011;7151;52.246;4.820;2023-08-06T03:55:25;2.10;;;1.10;;
14141;SDS011;7151;52.246;4.820;2023-08-06T03:57:51;1.07;;;0.90;;
14141;SDS011;7151;52.246;4.820;2023-08-06T04:00:16;1.00;;;0.80;;
14141;SDS011;7151;52.246;4.820;2023-08-06T04:02:42;1.13;;;0.80;;
14141;SDS011;7151;52.246;4.820;2023-08-06T04:05:08;0.57;;;0.57;;
14141;SDS011;7151;52.246;4.820;2023-08-06T04:07:34;1.93;;;0.90;;
14141;SDS011;7151;52.246;4.820;2023-08-06T04:10:00;2.03;;;0.77;;
14141;SDS011;7151;52.246;4.820;2023-08-06T04:12:27;1.27;;;1.03;;
14141;SDS011;7151;52.246;4.820;2023-08-06T04:14:53;0.77;;;0.70;;
14141;SDS011;7151;52.246;4.820;2023-08-06T04:17:20;0.97;;;0.70;;
14141;SDS011;7151;52.246;4.820;2023-08-06T04:19:47;2.23;;;0.87;;
14141;SDS011;7151;52.246;4.820;2023-08-06T04:22:15;1.70;;;1.00;;
14141;SDS011;7151;52.246;4.820;2023-08-06T04:24:41;2.17;;;0.90;;
14141;SDS011;7151;52.246;4.820;2023-08-06T04:27:08;1.33;;;1.10;;
14141;SDS011;7151;52.246;4.820;2023-08-06T04:29:34;1.10;;;0.90;;
14141;SDS011;7151;52.246;4.820;2023-08-06T04:32:00;1.60;;;1.10;;
14141;SDS011;7151;52.246;4.820;2023-08-06T04:34:26;0.80;;;0.80;;
14141;SDS011;7151;52.246;4.820;2023-08-06T04:36:52;1.87;;;1.00;;
14141;SDS011;7151;52.246;4.820;2023-08-06T04:39:17;1.97;;;0.60;;
14141;SDS011;7151;52.246;4.820;2023-08-06T04:41:43;2.13;;;0.97;;
14141;SDS011;7151;52.246;4.820;2023-08-06T04:44:09;1.27;;;0.87;;
14141;SDS011;7151;52.246;4.820;2023-08-06T04:46:34;1.70;;;1.10;;
14141;SDS011;7151;52.246;4.820;2023-08-06T04:49:00;3.03;;;1.13;;
14141;SDS011;7151;52.246;4.820;2023-08-06T04:51:25;1.27;;;0.93;;
14141;SDS011;7151;52.246;4.820;2023-08-06T04:53:51;1.40;;;1.00;;
14141;SDS011;7151;52.246;4.820;2023-08-06T04:56:16;10.57;;;4.87;;
14141;SDS011;7151;52.246;4.820;2023-08-06T04:58:42;3.33;;;2.87;;
14141;SDS011;7151;52.246;4.820;2023-08-06T05:01:08;1.60;;;1.20;;
14141;SDS011;7151;52.246;4.820;2023-08-06T05:03:33;1.00;;;0.90;;
14141;SDS011;7151;52.246;4.820;2023-08-06T05:05:59;2.63;;;0.97;;
14141;SDS011;7151;52.246;4.820;2023-08-06T05:08:24;1.07;;;0.97;;
14141;SDS011;7151;52.246;4.820;2023-08-06T05:10:56;1.00;;;0.73;;
14141;SDS011;7151;52.246;4.820;2023-08-06T05:13:22;2.00;;;0.90;;
14141;SDS011;7151;52.246;4.820;2023-08-06T05:15:47;1.57;;;0.87;;
14141;SDS011;7151;52.246;4.820;2023-08-06T05:18:13;2.63;;;1.03;;
14141;SDS011;7151;52.246;4.820;2023-08-06T05:20:39;0.63;;;0.57;;
14141;SDS011;7151;52.246;4.820;2023-08-06T05:23:06;0.93;;;0.70;;
14141;SDS011;7151;52.246;4.820;2023-08-06T05:25:31;1.00;;;0.77;;
14141;SDS011;7151;52.246;4.820;2023-08-06T05:27:58;1.20;;;0.90;;
14141;SDS011;7151;52.246;4.820;2023-08-06T05:30:26;0.87;;;0.73;;
14141;SDS011;7151;52.246;4.820;2023-08-06T05:32:52;0.90;;;0.83;;
14141;SDS011;7151;52.246;4.820;2023-08-06T05:35:17;0.80;;;0.80;;
14141;SDS011;7151;52.246;4.820;2023-08-06T05:37:43;1.10;;;1.00;;
14141;SDS011;7151;52.246;4.820;2023-08-06T05:40:09;1.30;;;1.17;;
14141;SDS011;7151;52.246;4.820;2023-08-06T05:42:34;1.00;;;0.87;;
14141;SDS011;7151;52.246;4.820;2023-08-06T05:45:00;2.17;;;1.40;;
14141;SDS011;7151;52.246;4.820;2023-08-06T05:47:26;1.30;;;1.20;;
14141;SDS011;7151;52.246;4.820;2023-08-06T05:49:51;1.33;;;1.20;;
14141;SDS011;7151;52.246;4.820;2023-08-06T05:52:17;2.13;;;1.30;;
14141;SDS011;7151;52.246;4.820;2023-08-06T05:54:42;1.27;;;1.07;;
14141;SDS011;7151;52.246;4.820;2023-08-06T05:57:08;1.90;;;1.37;;
14141;SDS011;7151;52.246;4.820;2023-08-06T05:59:33;1.50;;;1.40;;
14141;SDS011;7151;52.246;4.820;2023-08-06T06:01:59;1.73;;;1.40;;
14141;SDS011;7151;52.246;4.820;2023-08-06T06:04:25;2.07;;;1.87;;
14141;SDS011;7151;52.246;4.820;2023-08-06T06:06:50;2.30;;;1.30;;
14141;SDS011;7151;52.246;4.820;2023-08-06T06:09:16;1.23;;;1.13;;
14141;SDS011;7151;52.246;4.820;2023-08-06T06:11:41;1.63;;;1.20;;
14141;SDS011;7151;52.246;4.820;2023-08-06T06:14:07;1.63;;;1.40;;
14141;SDS011;7151;52.246;4.820;2023-08-06T06:16:33;1.37;;;1.27;;
14141;SDS011;7151;52.246;4.820;2023-08-06T06:18:59;1.27;;;1.17;;
14141;SDS011;7151;52.246;4.820;2023-08-06T06:21:24;2.00;;;1.73;;
14141;SDS011;7151;52.246;4.820;2023-08-06T06:23:50;3.27;;;1.80;;
14141;SDS011;7151;52.246;4.820;2023-08-06T06:26:16;3.23;;;1.80;;
14141;SDS011;7151;52.246;4.820;2023-08-06T06:28:43;1.43;;;1.33;;
14141;SDS011;7151;52.246;4.820;2023-08-06T06:31:08;1.93;;;1.43;;
14141;SDS011;7151;52.246;4.820;2023-08-06T06:33:34;1.63;;;1.50;;
14141;SDS011;7151;52.246;4.820;2023-08-06T06:36:00;2.03;;;1.50;;
14141;SDS011;7151;52.246;4.820;2023-08-06T06:38:28;1.57;;;1.47;;
14141;SDS011;7151;52.246;4.820;2023-08-06T06:40:56;1.27;;;1.17;;
14141;SDS011;7151;52.246;4.820;2023-08-06T06:43:22;2.27;;;1.40;;
14141;SDS011;7151;52.246;4.820;2023-08-06T06:45:58;2.37;;;1.23;;
14141;SDS011;7151;52.246;4.820;2023-08-06T06:48:27;1.87;;;1.67;;
14141;SDS011;7151;52.246;4.820;2023-08-06T06:50:53;1.60;;;1.40;;
14141;SDS011;7151;52.246;4.820;2023-08-06T06:53:19;3.20;;;1.70;;
14141;SDS011;7151;52.246;4.820;2023-08-06T06:55:44;4.77;;;1.90;;
14141;SDS011;7151;52.246;4.820;2023-08-06T06:58:10;4.40;;;1.50;;
14141;SDS011;7151;52.246;4.820;2023-08-06T07:00:36;1.27;;;1.17;;
14141;SDS011;7151;52.246;4.820;2023-08-06T07:03:02;1.60;;;1.40;;
14141;SDS011;7151;52.246;4.820;2023-08-06T07:05:28;1.77;;;1.67;;
14141;SDS011;7151;52.246;4.820;2023-08-06T07:07:54;1.80;;;1.50;;
14141;SDS011;7151;52.246;4.820;2023-08-06T07:10:19;2.40;;;1.90;;
14141;SDS011;7151;52.246;4.820;2023-08-06T07:12:45;3.93;;;1.67;;
14141;SDS011;7151;52.246;4.820;2023-08-06T07:15:14;2.30;;;1.73;;
14141;SDS011;7151;52.246;4.820;2023-08-06T07:17:39;3.87;;;1.80;;
14141;SDS011;7151;52.246;4.820;2023-08-06T07:20:05;2.73;;;1.77;;
14141;SDS011;7151;52.246;4.820;2023-08-06T07:22:31;2.60;;;1.80;;
14141;SDS011;7151;52.246;4.820;2023-08-06T07:24:57;2.23;;;1.60;;
14141;SDS011;7151;52.246;4.820;2023-08-06T07:27:23;1.83;;;1.53;;
14141;SDS011;7151;52.246;4.820;2023-08-06T07:29:49;2.10;;;1.67;;
14141;SDS011;7151;52.246;4.820;2023-08-06T07:32:15;2.07;;;1.67;;
14141;SDS011;7151;52.246;4.820;2023-08-06T07:34:40;4.00;;;1.73;;
14141;SDS011;7151;52.246;4.820;2023-08-06T07:37:06;2.37;;;1.77;;
14141;SDS011;7151;52.246;4.820;2023-08-06T07:39:32;3.47;;;1.90;;
14141;SDS011;7151;52.246;4.820;2023-08-06T07:41:57;3.13;;;1.83;;
14141;SDS011;7151;52.246;4.820;2023-08-06T07:44:23;4.43;;;2.33;;
14141;SDS011;7151;52.246;4.820;2023-08-06T07:46:49;2.23;;;2.00;;
14141;SDS011;7151;52.246;4.820;2023-08-06T07:49:14;2.00;;;1.57;;
14141;SDS011;7151;52.246;4.820;2023-08-06T07:51:40;2.57;;;1.97;;
14141;SDS011;7151;52.246;4.820;2023-08-06T07:54:06;1.50;;;1.40;;
14141;SDS011;7151;52.246;4.820;2023-08-06T07:56:32;2.13;;;1.63;;
14141;SDS011;7151;52.246;4.820;2023-08-06T07:58:58;1.97;;;1.60;;
14141;SDS011;7151;52.246;4.820;2023-08-06T08:01:23;3.37;;;1.70;;
14141;SDS011;7151;52.246;4.820;2023-08-06T08:03:49;1.63;;;1.20;;
14141;SDS011;7151;52.246;4.820;2023-08-06T08:06:15;3.20;;;1.60;;
14141;SDS011;7151;52.246;4.820;2023-08-06T08:08:40;1.70;;;1.30;;
14141;SDS011;7151;52.246;4.820;2023-08-06T08:11:06;2.00;;;1.60;;
14141;SDS011;7151;52.246;4.820;2023-08-06T08:13:32;2.17;;;1.30;;
14141;SDS011;7151;52.246;4.820;2023-08-06T08:15:57;3.70;;;1.23;;
14141;SDS011;7151;52.246;4.820;2023-08-06T08:18:24;2.43;;;1.50;;
14141;SDS011;7151;52.246;4.820;2023-08-06T08:20:50;2.33;;;1.50;;
14141;SDS011;7151;52.246;4.820;2023-08-06T08:23:16;2.40;;;1.60;;
14141;SDS011;7151;52.246;4.820;2023-08-06T08:25:42;3.63;;;1.43;;
14141;SDS011;7151;52.246;4.820;2023-08-06T08:28:07;3.80;;;1.83;;
14141;SDS011;7151;52.246;4.820;2023-08-06T08:30:33;3.17;;;1.50;;
14141;SDS011;7151;52.246;4.820;2023-08-06T08:32:59;1.30;;;1.17;;
14141;SDS011;7151;52.246;4.820;2023-08-06T08:35:24;7.13;;;1.37;;
14141;SDS011;7151;52.246;4.820;2023-08-06T08:37:50;2.90;;;1.43;;
14141;SDS011;7151;52.246;4.820;2023-08-06T08:40:16;2.53;;;1.50;;
14141;SDS011;7151;52.246;4.820;2023-08-06T08:42:42;3.63;;;1.53;;
14141;SDS011;7151;52.246;4.820;2023-08-06T08:45:12;2.00;;;1.00;;
14141;SDS011;7151;52.246;4.820;2023-08-06T08:47:39;2.37;;;1.23;;
14141;SDS011;7151;52.246;4.820;2023-08-06T08:50:08;1.27;;;0.93;;
14141;SDS011;7151;52.246;4.820;2023-08-06T08:52:41;2.03;;;0.97;;
14141;SDS011;7151;52.246;4.820;2023-08-06T08:55:11;1.83;;;1.20;;
14141;SDS011;7151;52.246;4.820;2023-08-06T08:57:39;1.37;;;1.00;;
14141;SDS011;7151;52.246;4.820;2023-08-06T09:00:04;1.10;;;1.00;;
14141;SDS011;7151;52.246;4.820;2023-08-06T09:02:31;1.13;;;0.80;;
14141;SDS011;7151;52.246;4.820;2023-08-06T09:04:59;1.73;;;0.63;;
14141;SDS011;7151;52.246;4.820;2023-08-06T09:07:27;3.63;;;1.07;;
14141;SDS011;7151;52.246;4.820;2023-08-06T09:09:56;0.93;;;0.77;;
14141;SDS011;7151;52.246;4.820;2023-08-06T09:12:24;1.17;;;0.80;;
14141;SDS011;7151;52.246;4.820;2023-08-06T09:14:51;0.73;;;0.50;;
14141;SDS011;7151;52.246;4.820;2023-08-06T09:17:17;3.77;;;0.40;;
14141;SDS011;7151;52.246;4.820;2023-08-06T09:19:45;1.30;;;0.67;;
14141;SDS011;7151;52.246;4.820;2023-08-06T09:22:13;0.97;;;0.70;;
14141;SDS011;7151;52.246;4.820;2023-08-06T09:24:42;1.00;;;0.73;;
14141;SDS011;7151;52.246;4.820;2023-08-06T09:27:11;0.80;;;0.73;;
14141;SDS011;7151;52.246;4.820;2023-08-06T09:29:45;3.30;;;0.60;;
14141;SDS011;7151;52.246;4.820;2023-08-06T09:32:14;1.40;;;0.57;;
14141;SDS011;7151;52.246;4.820;2023-08-06T09:34:41;0.50;;;0.50;;
14141;SDS011;7151;52.246;4.820;2023-08-06T09:37:10;1.17;;;0.47;;
14141;SDS011;7151;52.246;4.820;2023-08-06T09:39:37;1.47;;;0.50;;
14141;SDS011;7151;52.246;4.820;2023-08-06T09:42:03;0.73;;;0.60;;
14141;SDS011;7151;52.246;4.820;2023-08-06T09:44:30;6.03;;;0.90;;
14141;SDS011;7151;52.246;4.820;2023-08-06T09:46:58;1.70;;;0.80;;
14141;SDS011;7151;52.246;4.820;2023-08-06T09:49:28;0.90;;;0.70;;
14141;SDS011;7151;52.246;4.820;2023-08-06T09:51:57;0.80;;;0.70;;
14141;SDS011;7151;52.246;4.820;2023-08-06T09:54:24;2.20;;;0.60;;
14141;SDS011;7151;52.246;4.820;2023-08-06T09:56:55;0.43;;;0.43;;
14141;SDS011;7151;52.246;4.820;2023-08-06T09:59:25;1.07;;;0.47;;
14141;SDS011;7151;52.246;4.820;2023-08-06T10:01:51;4.07;;;0.50;;
14141;SDS011;7151;52.246;4.820;2023-08-06T10:04:19;1.70;;;0.50;;
14141;SDS011;7151;52.246;4.820;2023-08-06T10:06:46;1.07;;;0.60;;
14141;SDS011;7151;52.246;4.820;2023-08-06T10:09:15;1.60;;;0.60;;
14141;SDS011;7151;52.246;4.820;2023-08-06T10:11:42;0.97;;;0.50;;
14141;SDS011;7151;52.246;4.820;2023-08-06T10:14:13;1.67;;;0.80;;
14141;SDS011;7151;52.246;4.820;2023-08-06T10:17:00;1.33;;;0.60;;
14141;SDS011;7151;52.246;4.820;2023-08-06T10:19:26;2.33;;;1.10;;
14141;SDS011;7151;52.246;4.820;2023-08-06T10:22:15;0.93;;;0.70;;
14141;SDS011;7151;52.246;4.820;2023-08-06T10:24:46;2.63;;;0.70;;
14141;SDS011;7151;52.246;4.820;2023-08-06T10:30:20;0.53;;;0.53;;
14141;SDS011;7151;52.246;4.820;2023-08-06T10:32:46;3.77;;;0.97;;
14141;SDS011;7151;52.246;4.820;2023-08-06T10:35:30;0.90;;;0.60;;
14141;SDS011;7151;52.246;4.820;2023-08-06T10:38:09;1.80;;;0.73;;
14141;SDS011;7151;52.246;4.820;2023-08-06T10:40:37;0.90;;;0.77;;
14141;SDS011;7151;52.246;4.820;2023-08-06T10:43:05;2.47;;;0.90;;
14141;SDS011;7151;52.246;4.820;2023-08-06T10:45:36;2.03;;;1.00;;
14141;SDS011;7151;52.246;4.820;2023-08-06T10:48:03;3.97;;;1.60;;
14141;SDS011;7151;52.246;4.820;2023-08-06T10:50:29;3.80;;;1.27;;
14141;SDS011;7151;52.246;4.820;2023-08-06T10:52:56;4.80;;;1.10;;
14141;SDS011;7151;52.246;4.820;2023-08-06T10:55:23;1.87;;;0.80;;
14141;SDS011;7151;52.246;4.820;2023-08-06T10:57:52;0.60;;;0.50;;
14141;SDS011;7151;52.246;4.820;2023-08-06T11:00:18;2.30;;;0.90;;
14141;SDS011;7151;52.246;4.820;2023-08-06T11:02:49;1.03;;;0.80;;
14141;SDS011;7151;52.246;4.820;2023-08-06T11:05:16;1.93;;;0.80;;
14141;SDS011;7151;52.246;4.820;2023-08-06T11:07:42;2.83;;;0.63;;
14141;SDS011;7151;52.246;4.820;2023-08-06T11:10:09;1.30;;;0.90;;
14141;SDS011;7151;52.246;4.820;2023-08-06T11:12:36;1.67;;;0.77;;
14141;SDS011;7151;52.246;4.820;2023-08-06T11:15:02;2.00;;;0.80;;
14141;SDS011;7151;52.246;4.820;2023-08-06T11:17:30;0.83;;;0.53;;
14141;SDS011;7151;52.246;4.820;2023-08-06T11:19:58;2.73;;;0.60;;
14141;SDS011;7151;52.246;4.820;2023-08-06T11:22:25;1.20;;;0.87;;
14141;SDS011;7151;52.246;4.820;2023-08-06T11:24:51;1.70;;;0.60;;
14141;SDS011;7151;52.246;4.820;2023-08-06T11:27:18;0.97;;;0.67;;
14141;SDS011;7151;52.246;4.820;2023-08-06T11:29:44;5.20;;;0.90;;
14141;SDS011;7151;52.246;4.820;2023-08-06T11:32:09;1.00;;;0.70;;
14141;SDS011;7151;52.246;4.820;2023-08-06T11:34:36;0.70;;;0.53;;
14141;SDS011;7151;52.246;4.820;2023-08-06T11:37:03;0.83;;;0.50;;
14141;SDS011;7151;52.246;4.820;2023-08-06T11:39:32;1.77;;;0.57;;
14141;SDS011;7151;52.246;4.820;2023-08-06T11:41:58;1.77;;;0.67;;
14141;SDS011;7151;52.246;4.820;2023-08-06T11:44:29;1.20;;;0.47;;
14141;SDS011;7151;52.246;4.820;2023-08-06T11:46:57;1.03;;;0.50;;
14141;SDS011;7151;52.246;4.820;2023-08-06T11:54:40;0.70;;;0.60;;
14141;SDS011;7151;52.246;4.820;2023-08-06T11:57:06;0.67;;;0.50;;
14141;SDS011;7151;52.246;4.820;2023-08-06T11:59:32;1.90;;;0.50;;
14141;SDS011;7151;52.246;4.820;2023-08-06T12:01:57;0.70;;;0.67;;
14141;SDS011;7151;52.246;4.820;2023-08-06T12:04:25;1.87;;;0.60;;
14141;SDS011;7151;52.246;4.820;2023-08-06T12:06:50;0.93;;;0.60;;
14141;SDS011;7151;52.246;4.820;2023-08-06T12:09:16;0.90;;;0.53;;
14141;SDS011;7151;52.246;4.820;2023-08-06T12:11:42;1.17;;;0.70;;
14141;SDS011;7151;52.246;4.820;2023-08-06T12:14:07;0.57;;;0.50;;
14141;SDS011;7151;52.246;4.820;2023-08-06T12:16:33;0.97;;;0.73;;
14141;SDS011;7151;52.246;4.820;2023-08-06T12:18:59;0.70;;;0.40;;
14141;SDS011;7151;52.246;4.820;2023-08-06T12:21:24;1.33;;;0.60;;
14141;SDS011;7151;52.246;4.820;2023-08-06T12:23:50;2.13;;;0.60;;
14141;SDS011;7151;52.246;4.820;2023-08-06T12:26:15;1.10;;;0.80;;
14141;SDS011;7151;52.246;4.820;2023-08-06T12:28:41;1.13;;;0.70;;
14141;SDS011;7151;52.246;4.820;2023-08-06T12:31:06;2.00;;;0.73;;
14141;SDS011;7151;52.246;4.820;2023-08-06T12:33:32;1.07;;;0.77;;
14141;SDS011;7151;52.246;4.820;2023-08-06T12:35:57;1.53;;;0.87;;
14141;SDS011;7151;52.246;4.820;2023-08-06T12:38:23;1.47;;;0.77;;
14141;SDS011;7151;52.246;4.820;2023-08-06T12:40:49;1.23;;;0.60;;
14141;SDS011;7151;52.246;4.820;2023-08-06T12:43:14;0.53;;;0.43;;
14141;SDS011;7151;52.246;4.820;2023-08-06T12:45:40;1.13;;;0.63;;
14141;SDS011;7151;52.246;4.820;2023-08-06T12:48:06;1.50;;;0.70;;
14141;SDS011;7151;52.246;4.820;2023-08-06T12:50:31;1.27;;;0.80;;
14141;SDS011;7151;52.246;4.820;2023-08-06T12:53:00;0.57;;;0.53;;
14141;SDS011;7151;52.246;4.820;2023-08-06T12:55:25;0.80;;;0.60;;
14141;SDS011;7151;52.246;4.820;2023-08-06T12:57:51;0.70;;;0.70;;
14141;SDS011;7151;52.246;4.820;2023-08-06T13:00:16;1.87;;;0.60;;
14141;SDS011;7151;52.246;4.820;2023-08-06T13:02:42;1.10;;;0.60;;
14141;SDS011;7151;52.246;4.820;2023-08-06T13:05:08;1.10;;;0.83;;
14141;SDS011;7151;52.246;4.820;2023-08-06T13:07:34;1.27;;;0.80;;
14141;SDS011;7151;52.246;4.820;2023-08-06T13:10:00;1.20;;;0.60;;
14141;SDS011;7151;52.246;4.820;2023-08-06T13:12:26;1.37;;;0.70;;
14141;SDS011;7151;52.246;4.820;2023-08-06T13:14:51;3.17;;;0.70;;
14141;SDS011;7151;52.246;4.820;2023-08-06T13:17:18;1.47;;;0.60;;
14141;SDS011;7151;52.246;4.820;2023-08-06T13:19:43;1.33;;;0.47;;
14141;SDS011;7151;52.246;4.820;2023-08-06T13:22:09;1.43;;;0.70;;
14141;SDS011;7151;52.246;4.820;2023-08-06T13:24:35;1.80;;;0.73;;
14141;SDS011;7151;52.246;4.820;2023-08-06T13:27:01;0.77;;;0.50;;
14141;SDS011;7151;52.246;4.820;2023-08-06T13:29:26;0.90;;;0.60;;
14141;SDS011;7151;52.246;4.820;2023-08-06T13:31:52;0.30;;;0.30;;
14141;SDS011;7151;52.246;4.820;2023-08-06T13:34:18;1.00;;;0.50;;
14141;SDS011;7151;52.246;4.820;2023-08-06T13:36:44;1.40;;;0.73;;
14141;SDS011;7151;52.246;4.820;2023-08-06T13:39:10;1.43;;;0.50;;
14141;SDS011;7151;52.246;4.820;2023-08-06T13:41:37;3.30;;;0.60;;
14141;SDS011;7151;52.246;4.820;2023-08-06T13:44:03;1.97;;;0.60;;
14141;SDS011;7151;52.246;4.820;2023-08-06T13:46:29;1.33;;;0.37;;
14141;SDS011;7151;52.246;4.820;2023-08-06T13:48:54;1.13;;;0.60;;
14141;SDS011;7151;52.246;4.820;2023-08-06T13:51:20;1.10;;;0.70;;
14141;SDS011;7151;52.246;4.820;2023-08-06T13:53:45;1.00;;;0.70;;
14141;SDS011;7151;52.246;4.820;2023-08-06T13:56:11;3.50;;;0.67;;
14141;SDS011;7151;52.246;4.820;2023-08-06T13:58:37;0.80;;;0.63;;
14141;SDS011;7151;52.246;4.820;2023-08-06T14:01:03;2.10;;;0.70;;
14141;SDS011;7151;52.246;4.820;2023-08-06T14:03:29;0.97;;;0.70;;
14141;SDS011;7151;52.246;4.820;2023-08-06T14:05:54;1.23;;;0.83;;
14141;SDS011;7151;52.246;4.820;2023-08-06T14:08:21;1.00;;;0.73;;
14141;SDS011;7151;52.246;4.820;2023-08-06T14:10:48;1.73;;;0.80;;
14141;SDS011;7151;52.246;4.820;2023-08-06T14:13:14;0.93;;;0.70;;
14141;SDS011;7151;52.246;4.820;2023-08-06T14:15:39;1.27;;;1.13;;
14141;SDS011;7151;52.246;4.820;2023-08-06T14:18:05;0.80;;;0.50;;
14141;SDS011;7151;52.246;4.820;2023-08-06T14:20:33;2.17;;;0.70;;
14141;SDS011;7151;52.246;4.820;2023-08-06T14:22:59;3.83;;;0.60;;
14141;SDS011;7151;52.246;4.820;2023-08-06T14:25:25;3.40;;;0.93;;
14141;SDS011;7151;52.246;4.820;2023-08-06T14:27:51;1.43;;;0.60;;
14141;SDS011;7151;52.246;4.820;2023-08-06T14:30:16;2.57;;;0.77;;
14141;SDS011;7151;52.246;4.820;2023-08-06T14:32:42;3.97;;;0.70;;
14141;SDS011;7151;52.246;4.820;2023-08-06T14:35:07;5.17;;;0.93;;
14141;SDS011;7151;52.246;4.820;2023-08-06T14:37:33;3.20;;;0.77;;
14141;SDS011;7151;52.246;4.820;2023-08-06T14:39:59;2.10;;;0.70;;
14141;SDS011;7151;52.246;4.820;2023-08-06T14:42:24;1.17;;;0.50;;
14141;SDS011;7151;52.246;4.820;2023-08-06T14:44:50;2.80;;;0.70;;
14141;SDS011;7151;52.246;4.820;2023-08-06T14:47:16;3.97;;;0.70;;
14141;SDS011;7151;52.246;4.820;2023-08-06T14:49:41;4.13;;;0.67;;
14141;SDS011;7151;52.246;4.820;2023-08-06T14:52:07;2.47;;;0.63;;
14141;SDS011;7151;52.246;4.820;2023-08-06T14:54:32;1.57;;;0.77;;
14141;SDS011;7151;52.246;4.820;2023-08-06T14:56:58;1.90;;;0.77;;
14141;SDS011;7151;52.246;4.820;2023-08-06T14:59:23;3.70;;;0.93;;
14141;SDS011;7151;52.246;4.820;2023-08-06T15:01:49;1.27;;;0.70;;
14141;SDS011;7151;52.246;4.820;2023-08-06T15:04:16;2.47;;;0.87;;
14141;SDS011;7151;52.246;4.820;2023-08-06T15:06:42;1.37;;;0.70;;
14141;SDS011;7151;52.246;4.820;2023-08-06T15:09:07;1.77;;;0.97;;
14141;SDS011;7151;52.246;4.820;2023-08-06T15:11:33;1.57;;;0.87;;